createdAt,value
2022-08-07T00:00:26.242Z,13.40
2022-08-07T00:02:53.791Z,13.40
2022-08-07T00:05:21.308Z,13.40
2022-08-07T00:07:58.242Z,13.40
2022-08-07T00:10:29.686Z,13.40
2022-08-07T00:13:01.146Z,13.40
2022-08-07T00:15:38.606Z,13.30
2022-08-07T00:18:19.837Z,13.20
2022-08-07T00:20:51.885Z,13.30
2022-08-07T00:23:21.184Z,13.20
2022-08-07T00:25:52.522Z,13.20
2022-08-07T00:28:33.461Z,13.20
2022-08-07T00:31:12.516Z,13.20
2022-08-07T00:33:47.788Z,13.10
2022-08-07T00:36:16.725Z,13.10
2022-08-07T00:38:43.894Z,13.00
2022-08-07T00:41:14.841Z,13.00
2022-08-07T00:43:59.858Z,13.10
2022-08-07T00:46:29.589Z,13.10
2022-08-07T00:49:03.289Z,13.00
2022-08-07T00:51:56.978Z,12.90
2022-08-07T00:54:19.896Z,12.90
2022-08-07T00:56:49.891Z,12.90
2022-08-07T00:59:35.438Z,12.90
2022-08-07T01:02:13.982Z,12.90
2022-08-07T01:04:54.317Z,12.90
2022-08-07T01:07:27.552Z,12.90
2022-08-07T01:10:06.144Z,12.90
2022-08-07T01:12:53.972Z,12.90
2022-08-07T01:15:35.951Z,12.90
2022-08-07T01:18:11.446Z,12.90
2022-08-07T01:20:57.425Z,12.80
2022-08-07T01:23:38.403Z,12.80
2022-08-07T01:26:12.027Z,12.70
2022-08-07T01:28:45.951Z,12.70
2022-08-07T01:31:15.385Z,12.80
2022-08-07T01:33:55.588Z,12.70
2022-08-07T01:36:33.494Z,12.80
2022-08-07T01:39:09.882Z,12.80
2022-08-07T01:41:40.769Z,12.90
2022-08-07T01:44:26.543Z,13.00
2022-08-07T01:46:54.686Z,13.00
2022-08-07T01:49:22.253Z,13.10
2022-08-07T01:52:03.489Z,13.10
2022-08-07T01:54:37.398Z,13.20
2022-08-07T01:57:28.199Z,13.30
2022-08-07T02:00:00.691Z,13.30
2022-08-07T02:03:12.059Z,13.40
2022-08-07T02:05:47.669Z,13.40
2022-08-07T02:08:23.939Z,13.40
2022-08-07T02:10:54.983Z,13.40
2022-08-07T02:13:27.618Z,13.40
2022-08-07T02:16:13.111Z,13.30
2022-08-07T02:18:45.492Z,13.30
2022-08-07T02:21:17.317Z,13.10
2022-08-07T02:23:46.244Z,13.10
2022-08-07T02:26:34.548Z,13.00
2022-08-07T02:29:02.815Z,13.00
2022-08-07T02:31:32.721Z,12.90
2022-08-07T02:34:03.734Z,12.90
2022-08-07T02:36:39.504Z,12.90
2022-08-07T02:39:16.804Z,12.80
2022-08-07T02:41:54.594Z,12.80
2022-08-07T02:44:26.881Z,12.80
2022-08-07T02:47:04.428Z,12.80
2022-08-07T02:49:56.145Z,12.80
2022-08-07T02:52:32.119Z,12.80
2022-08-07T02:55:03.690Z,12.70
2022-08-07T02:57:35.031Z,12.70
2022-08-07T03:00:05.157Z,12.70
2022-08-07T03:02:50.973Z,12.70
2022-08-07T03:05:23.114Z,12.70
2022-08-07T03:08:07.371Z,12.80
2022-08-07T03:10:41.042Z,12.80
2022-08-07T03:13:19.390Z,12.80
2022-08-07T03:15:56.100Z,12.80
2022-08-07T03:18:35.017Z,12.80
2022-08-07T03:21:08.466Z,12.80
2022-08-07T03:24:19.560Z,12.90
2022-08-07T03:26:30.101Z,13.00
2022-08-07T03:28:58.757Z,13.00
2022-08-07T03:31:42.615Z,13.10
2022-08-07T03:34:18.585Z,13.20
2022-08-07T03:36:51.814Z,13.40
2022-08-07T03:39:46.276Z,13.40
2022-08-07T03:42:08.478Z,13.40
2022-08-07T03:44:37.727Z,13.50
2022-08-07T03:47:10.904Z,13.60
2022-08-07T03:49:39.431Z,13.60
2022-08-07T03:52:22.331Z,13.70
2022-08-07T03:54:54.119Z,13.70
2022-08-07T03:58:35.502Z,13.60
2022-08-07T04:00:11.713Z,13.70
2022-08-07T04:02:42.618Z,13.70
2022-08-07T04:05:14.719Z,13.80
2022-08-07T04:07:47.727Z,13.80
2022-08-07T04:10:19.349Z,13.80
2022-08-07T04:12:48.058Z,13.90
2022-08-07T04:15:17.011Z,13.90
2022-08-07T04:18:31.075Z,14.00
2022-08-07T04:20:35.343Z,14.10
2022-08-07T04:23:06.618Z,14.20
2022-08-07T04:25:39.022Z,14.30
2022-08-07T04:28:08.126Z,14.40
2022-08-07T04:30:43.607Z,14.40
2022-08-07T04:33:24.462Z,14.50
2022-08-07T04:35:53.260Z,15.00
2022-08-07T04:38:22.076Z,15.70
2022-08-07T04:40:52.043Z,16.70
2022-08-07T04:44:09.619Z,17.10
2022-08-07T04:46:34.375Z,17.50
2022-08-07T04:49:18.053Z,17.80
2022-08-07T04:52:02.296Z,17.80
2022-08-07T04:54:43.021Z,17.50
2022-08-07T04:58:10.080Z,17.50
2022-08-07T05:00:30.439Z,17.80
2022-08-07T05:04:00.387Z,17.50
2022-08-07T05:06:19.957Z,17.00
2022-08-07T05:09:11.207Z,16.70
2022-08-07T05:11:57.289Z,16.60
2022-08-07T05:14:54.507Z,16.70
2022-08-07T05:17:52.900Z,16.70
2022-08-07T05:20:23.835Z,16.90
2022-08-07T05:22:53.370Z,17.00
2022-08-07T05:25:26.268Z,17.10
2022-08-07T05:28:20.172Z,17.20
2022-08-07T05:30:52.210Z,17.20
2022-08-07T05:33:20.877Z,17.30
2022-08-07T05:35:50.902Z,17.30
2022-08-07T05:38:59.732Z,17.40
2022-08-07T05:41:14.100Z,17.40
2022-08-07T05:44:08.381Z,17.50
2022-08-07T05:46:37.725Z,17.70
2022-08-07T05:49:12.436Z,17.70
2022-08-07T05:51:46.359Z,17.90
2022-08-07T05:54:30.521Z,18.20
2022-08-07T05:56:59.378Z,18.50
2022-08-07T05:59:28.002Z,18.80
2022-08-07T06:01:59.398Z,19.00
2022-08-07T06:04:29.972Z,19.20
2022-08-07T06:07:03.978Z,19.70
2022-08-07T06:09:44.836Z,20.50
2022-08-07T06:12:21.014Z,21.80
2022-08-07T06:14:55.230Z,22.30
2022-08-07T06:17:37.590Z,22.00
2022-08-07T06:20:12.438Z,21.40
2022-08-07T06:22:42.245Z,21.00
2022-08-07T06:25:34.650Z,20.50
2022-08-07T06:28:10.248Z,20.20
2022-08-07T06:30:45.882Z,20.10
2022-08-07T06:33:16.342Z,20.10
2022-08-07T06:35:47.871Z,19.90
2022-08-07T06:38:31.500Z,20.00
2022-08-07T06:41:00.916Z,20.00
2022-08-07T06:43:39.389Z,19.80
2022-08-07T06:46:11.640Z,19.80
2022-08-07T06:48:41.968Z,20.00
2022-08-07T06:51:31.299Z,20.00
2022-08-07T06:55:29.921Z,20.30
2022-08-07T06:56:55.085Z,20.30
2022-08-07T07:00:12.759Z,20.50
2022-08-07T07:02:49.266Z,20.60
2022-08-07T07:05:13.038Z,20.80
2022-08-07T07:07:59.796Z,20.90
2022-08-07T07:10:35.464Z,21.00
2022-08-07T07:13:16.343Z,21.00
2022-08-07T07:16:07.832Z,21.00
2022-08-07T07:18:47.743Z,21.20
2022-08-07T07:21:26.980Z,21.40
2022-08-07T07:24:12.495Z,21.70
2022-08-07T07:26:49.661Z,21.90
2022-08-07T07:29:55.815Z,22.10
2022-08-07T07:32:14.465Z,22.70
2022-08-07T07:34:49.319Z,22.80
2022-08-07T07:37:45.115Z,22.80
2022-08-07T07:40:10.220Z,22.90
2022-08-07T07:42:43.471Z,23.50
2022-08-07T07:45:24.601Z,23.60
2022-08-07T07:48:12.936Z,23.70
2022-08-07T07:51:02.076Z,23.60
2022-08-07T07:53:30.590Z,23.40
2022-08-07T07:56:03.590Z,23.10
2022-08-07T07:58:37.113Z,23.10
2022-08-07T08:02:03.684Z,23.30
2022-08-07T08:04:06.258Z,23.40
2022-08-07T08:06:39.704Z,23.80
2022-08-07T08:09:09.731Z,24.20
2022-08-07T08:11:59.267Z,24.20
2022-08-07T08:14:28.082Z,24.00
2022-08-07T08:17:55.534Z,23.80
2022-08-07T08:20:17.774Z,23.80
2022-08-07T08:23:02.080Z,23.60
2022-08-07T08:25:52.155Z,23.30
2022-08-07T08:28:38.059Z,23.10
2022-08-07T08:31:14.740Z,23.00
2022-08-07T08:33:49.903Z,22.90
2022-08-07T08:36:25.626Z,23.10
2022-08-07T08:39:01.614Z,23.10
2022-08-07T08:41:57.102Z,22.60
2022-08-07T08:44:44.263Z,22.10
2022-08-07T08:47:25.961Z,22.00
2022-08-07T08:50:06.042Z,21.80
2022-08-07T08:52:40.896Z,21.80
2022-08-07T08:55:53.241Z,22.20
2022-08-07T08:58:57.271Z,22.40
2022-08-07T09:01:44.129Z,22.60
2022-08-07T09:04:28.596Z,22.80
2022-08-07T09:07:22.960Z,22.90
2022-08-07T09:10:19.376Z,23.10
2022-08-07T09:13:03.777Z,23.40
2022-08-07T09:16:23.872Z,23.50
2022-08-07T09:19:00.572Z,23.70
2022-08-07T09:22:22.389Z,23.80
2022-08-07T09:24:55.997Z,24.40
2022-08-07T09:28:00.413Z,24.80
2022-08-07T09:31:07.223Z,25.60
2022-08-07T09:33:57.974Z,25.60
2022-08-07T09:36:35.707Z,26.00
2022-08-07T09:39:53.185Z,27.00
2022-08-07T09:42:50.432Z,27.50
2022-08-07T09:47:24.707Z,26.50
2022-08-07T09:50:02.529Z,26.20
2022-08-07T09:52:10.100Z,26.00
2022-08-07T09:54:56.432Z,25.80
2022-08-07T09:57:50.792Z,25.70
2022-08-07T10:00:29.950Z,25.50
2022-08-07T10:04:05.083Z,25.20
2022-08-07T10:06:49.146Z,24.30
2022-08-07T10:09:59.329Z,23.60
2022-08-07T10:12:52.615Z,23.20
2022-08-07T10:15:44.824Z,23.50
2022-08-07T10:18:26.375Z,23.80
2022-08-07T10:21:19.926Z,24.20
2022-08-07T10:24:21.580Z,24.50
2022-08-07T10:26:58.441Z,24.40
2022-08-07T10:29:51.773Z,24.10
2022-08-07T10:32:53.353Z,24.10
2022-08-07T10:35:55.366Z,24.10
2022-08-07T10:38:49.530Z,24.00
2022-08-07T10:41:52.247Z,23.70
2022-08-07T10:44:39.083Z,23.60
2022-08-07T10:47:54.975Z,23.70
2022-08-07T10:50:50.227Z,23.90
2022-08-07T10:53:44.834Z,23.90
2022-08-07T10:56:20.957Z,23.70
2022-08-07T10:59:30.234Z,23.40
2022-08-07T11:02:12.436Z,23.10
2022-08-07T11:05:44.824Z,22.90
2022-08-07T11:08:34.543Z,22.70
2022-08-07T11:11:14.666Z,22.70
2022-08-07T11:14:44.399Z,22.70
2022-08-07T11:16:54.747Z,22.80
2022-08-07T11:19:29.494Z,22.80
2022-08-07T11:22:26.688Z,22.80
2022-08-07T11:25:06.484Z,22.70
2022-08-07T11:28:02.476Z,22.50
2022-08-07T11:30:52.461Z,22.40
2022-08-07T11:33:54.267Z,22.20
2022-08-07T11:36:31.011Z,22.30
2022-08-07T11:39:14.654Z,22.50
2022-08-07T11:42:03.357Z,22.50
2022-08-07T11:44:52.428Z,22.70
2022-08-07T11:47:56.692Z,22.90
2022-08-07T11:50:57.899Z,23.00
2022-08-07T11:54:03.151Z,23.10
2022-08-07T11:57:15.762Z,23.10
2022-08-07T12:00:10.445Z,23.20
2022-08-07T12:02:59.790Z,23.10
2022-08-07T12:05:49.364Z,22.80
2022-08-07T12:08:31.813Z,22.90
2022-08-07T12:11:21.190Z,22.90
2022-08-07T12:14:22.392Z,22.80
2022-08-07T12:16:58.337Z,22.90
2022-08-07T12:19:35.758Z,22.80
2022-08-07T12:22:37.957Z,22.80
2022-08-07T12:26:02.778Z,22.80
2022-08-07T12:28:58.640Z,23.00
2022-08-07T12:32:01.924Z,23.20
2022-08-07T12:34:38.892Z,23.10
2022-08-07T12:37:16.802Z,23.20
2022-08-07T12:39:52.463Z,23.20
2022-08-07T12:42:27.681Z,23.30
2022-08-07T12:45:05.658Z,23.40
2022-08-07T12:47:49.112Z,23.60
2022-08-07T12:50:40.267Z,23.50
2022-08-07T12:54:02.763Z,23.20
2022-08-07T12:56:33.659Z,23.10
2022-08-07T12:59:03.813Z,23.10
2022-08-07T13:02:03.104Z,23.00
2022-08-07T13:06:01.835Z,22.90
2022-08-07T13:08:19.270Z,23.00
2022-08-07T13:11:16.137Z,23.10
2022-08-07T13:14:09.233Z,23.10
2022-08-07T13:16:50.709Z,23.00
2022-08-07T13:19:58.636Z,23.00
2022-08-07T13:22:33.156Z,22.90
2022-08-07T13:25:06.889Z,22.80
2022-08-07T13:28:12.433Z,22.80
2022-08-07T13:30:49.017Z,23.00
2022-08-07T13:34:31.877Z,23.00
2022-08-07T13:36:59.448Z,22.90
2022-08-07T13:40:35.946Z,22.90
2022-08-07T13:43:01.619Z,23.00
2022-08-07T13:46:21.233Z,23.00
2022-08-07T13:48:33.735Z,23.10
2022-08-07T13:51:27.704Z,23.20
2022-08-07T13:54:04.940Z,23.40
2022-08-07T13:56:51.533Z,23.50
2022-08-07T13:59:27.089Z,23.50
2022-08-07T14:02:10.379Z,23.50
2022-08-07T14:04:50.222Z,23.50
2022-08-07T14:07:24.679Z,23.60
2022-08-07T14:10:02.226Z,23.50
2022-08-07T14:12:57.586Z,23.50
2022-08-07T14:15:24.578Z,23.50
2022-08-07T14:18:23.857Z,23.40
2022-08-07T14:20:48.648Z,23.30
2022-08-07T14:23:31.385Z,23.10
2022-08-07T14:26:28.415Z,23.00
2022-08-07T14:29:08.606Z,22.90
2022-08-07T14:31:55.973Z,22.80
2022-08-07T14:34:29.929Z,22.90
2022-08-07T14:37:03.656Z,22.90
2022-08-07T14:40:17.392Z,22.80
2022-08-07T14:42:31.486Z,22.70
2022-08-07T14:45:22.334Z,22.70
2022-08-07T14:50:51.925Z,22.70
2022-08-07T14:54:03.783Z,22.60
2022-08-07T14:56:13.221Z,22.60
2022-08-07T14:58:44.104Z,22.50
2022-08-07T15:01:21.624Z,22.40
2022-08-07T15:06:40.458Z,22.30
2022-08-07T15:09:47.110Z,22.30
2022-08-07T15:15:08.264Z,22.30
2022-08-07T15:17:55.309Z,22.40
2022-08-07T15:23:21.115Z,22.40
2022-08-07T15:26:11.089Z,22.30
2022-08-07T15:28:56.720Z,22.20
2022-08-07T15:32:00.978Z,22.20
2022-08-07T15:34:26.129Z,22.20
2022-08-07T15:39:52.108Z,22.20
2022-08-07T15:42:53.928Z,22.20
2022-08-07T15:45:56.180Z,22.10
2022-08-07T15:48:27.262Z,22.00
2022-08-07T15:53:56.091Z,21.80
2022-08-07T15:56:45.030Z,21.70
2022-08-07T15:59:17.217Z,21.60
2022-08-07T16:02:01.997Z,21.50
2022-08-07T16:04:32.102Z,21.40
2022-08-07T16:07:01.078Z,21.40
2022-08-07T16:09:42.345Z,21.40
2022-08-07T16:13:01.005Z,21.40
2022-08-07T16:15:57.770Z,21.40
2022-08-07T16:18:49.446Z,21.50
2022-08-07T16:22:08.727Z,21.60
2022-08-07T16:25:23.250Z,21.60
2022-08-07T16:27:57.159Z,21.60
2022-08-07T16:30:32.589Z,21.60
2022-08-07T16:34:01.833Z,21.40
2022-08-07T16:36:20.789Z,21.40
2022-08-07T16:39:33.865Z,21.40
2022-08-07T16:42:38.004Z,21.40
2022-08-07T16:46:21.048Z,21.30
2022-08-07T16:48:27.749Z,21.30
2022-08-07T16:51:54.631Z,21.20
2022-08-07T16:54:33.162Z,21.20
2022-08-07T16:57:15.232Z,21.20
2022-08-07T16:59:58.118Z,21.10
2022-08-07T17:03:17.178Z,21.10
2022-08-07T17:06:29.627Z,21.00
2022-08-07T17:09:09.646Z,21.00
2022-08-07T17:12:01.799Z,20.90
2022-08-07T17:14:52.349Z,20.90
2022-08-07T17:17:48.599Z,20.80
2022-08-07T17:20:37.385Z,20.70
2022-08-07T17:23:22.794Z,20.60
2022-08-07T17:26:22.780Z,20.50
2022-08-07T17:28:58.186Z,20.40
2022-08-07T17:31:44.110Z,20.40
2022-08-07T17:35:08.938Z,20.40
2022-08-07T17:38:09.816Z,20.30
2022-08-07T17:40:56.682Z,20.20
2022-08-07T17:44:02.241Z,20.20
2022-08-07T17:46:43.248Z,20.10
2022-08-07T17:49:58.555Z,19.90
2022-08-07T17:52:47.369Z,19.90
2022-08-07T17:56:01.065Z,19.80
2022-08-07T17:58:09.090Z,19.70
2022-08-07T18:00:48.803Z,19.70
2022-08-07T18:03:28.576Z,19.60
2022-08-07T18:06:38.706Z,19.50
2022-08-07T18:09:08.793Z,19.50
2022-08-07T18:12:17.869Z,19.40
2022-08-07T18:14:45.034Z,19.30
2022-08-07T18:18:46.259Z,19.30
2022-08-07T18:21:09.697Z,19.20
2022-08-07T18:23:50.789Z,19.10
2022-08-07T18:26:40.572Z,19.00
2022-08-07T18:30:05.380Z,19.00
2022-08-07T18:32:22.321Z,18.90
2022-08-07T18:35:27.089Z,18.80
2022-08-07T18:38:55.489Z,18.80
2022-08-07T18:41:44.660Z,18.60
2022-08-07T18:47:44.909Z,18.50
2022-08-07T18:50:40.781Z,18.40
2022-08-07T18:53:39.214Z,18.30
2022-08-07T18:56:30.756Z,18.30
2022-08-07T18:59:08.289Z,18.30
2022-08-07T19:02:33.926Z,18.20
2022-08-07T19:05:15.352Z,18.10
2022-08-07T19:08:06.355Z,18.00
2022-08-07T19:10:49.530Z,18.00
2022-08-07T19:13:55.136Z,17.90
2022-08-07T19:17:05.041Z,17.90
2022-08-07T19:19:51.214Z,17.90
2022-08-07T19:22:52.577Z,17.90
2022-08-07T19:26:22.929Z,17.90
2022-08-07T19:28:58.489Z,17.80
2022-08-07T19:31:42.774Z,17.80
2022-08-07T19:34:34.353Z,17.70
2022-08-07T19:37:17.282Z,17.60
2022-08-07T19:39:57.724Z,17.50
2022-08-07T19:42:31.554Z,17.50
2022-08-07T19:45:08.602Z,17.50
2022-08-07T19:47:42.971Z,17.40
2022-08-07T19:50:44.537Z,17.40
2022-08-07T19:52:59.111Z,17.30
2022-08-07T19:55:56.752Z,17.30
2022-08-07T19:58:28.409Z,17.20
2022-08-07T20:00:57.856Z,17.10
2022-08-07T20:03:35.236Z,17.10
2022-08-07T20:06:15.412Z,17.00
2022-08-07T20:08:58.406Z,16.90
2022-08-07T20:12:01.323Z,16.90
2022-08-07T20:14:31.697Z,16.80
2022-08-07T20:17:03.452Z,16.80
2022-08-07T20:19:49.342Z,16.70
2022-08-07T20:22:28.999Z,16.70
2022-08-07T20:25:12.772Z,16.70
2022-08-07T20:27:58.277Z,16.60
2022-08-07T20:30:34.431Z,16.60
2022-08-07T20:33:05.041Z,16.60
2022-08-07T20:35:51.974Z,16.60
2022-08-07T20:38:29.945Z,16.50
2022-08-07T20:41:03.817Z,16.50
2022-08-07T20:43:36.385Z,16.40
2022-08-07T20:46:28.566Z,16.40
2022-08-07T20:49:58.181Z,16.40
2022-08-07T20:51:50.230Z,16.40
2022-08-07T20:54:29.700Z,16.30
2022-08-07T20:57:04.465Z,16.30
2022-08-07T21:00:07.426Z,16.30
2022-08-07T21:02:55.225Z,16.40
2022-08-07T21:05:51.259Z,16.40
2022-08-07T21:08:36.701Z,16.30
2022-08-07T21:11:17.453Z,16.30
2022-08-07T21:14:16.595Z,16.20
2022-08-07T21:17:06.772Z,16.20
2022-08-07T21:19:51.910Z,16.20
2022-08-07T21:22:40.027Z,16.20
2022-08-07T21:25:24.526Z,16.10
2022-08-07T21:28:47.537Z,16.00
2022-08-07T21:31:24.830Z,16.10
2022-08-07T21:34:31.737Z,16.10
2022-08-07T21:37:25.608Z,16.10
2022-08-07T21:39:59.712Z,16.00
2022-08-07T21:42:48.964Z,16.00
2022-08-07T21:46:03.440Z,16.00
2022-08-07T21:48:27.845Z,16.00
2022-08-07T21:51:19.499Z,16.00
2022-08-07T21:53:53.987Z,15.90
2022-08-07T21:56:36.498Z,15.90
2022-08-07T21:59:24.010Z,15.90
2022-08-07T22:02:13.165Z,15.90
2022-08-07T22:04:53.783Z,15.90
2022-08-07T22:07:35.635Z,15.90
2022-08-07T22:10:24.710Z,15.90
2022-08-07T22:12:55.499Z,15.80
2022-08-07T22:16:40.195Z,15.80
2022-08-07T22:18:44.583Z,15.80
2022-08-07T22:21:21.019Z,15.70
2022-08-07T22:24:01.481Z,15.70
2022-08-07T22:26:44.770Z,15.70
2022-08-07T22:29:47.545Z,15.80
2022-08-07T22:32:47.180Z,15.70
2022-08-07T22:35:23.365Z,15.70
2022-08-07T22:38:02.829Z,15.70
2022-08-07T22:41:07.649Z,15.70
2022-08-07T22:43:50.321Z,15.60
2022-08-07T22:47:02.783Z,15.70
2022-08-07T22:49:16.493Z,15.60
2022-08-07T22:51:43.463Z,15.70
2022-08-07T22:54:41.089Z,15.70
2022-08-07T22:57:40.999Z,15.70
2022-08-07T23:00:16.716Z,15.70
2022-08-07T23:03:17.496Z,15.60
2022-08-07T23:06:24.050Z,15.60
2022-08-07T23:10:06.338Z,15.50
2022-08-07T23:12:33.985Z,15.50
2022-08-07T23:16:05.640Z,15.40
2022-08-07T23:18:32.151Z,15.40
2022-08-07T23:21:06.432Z,15.30
2022-08-07T23:24:05.176Z,15.30
2022-08-07T23:26:54.848Z,15.40
2022-08-07T23:30:37.643Z,15.20
2022-08-07T23:34:36.720Z,15.30
2022-08-07T23:36:22.882Z,15.20
2022-08-07T23:39:12.840Z,15.20
2022-08-07T23:42:07.816Z,15.10
2022-08-07T23:44:51.477Z,15.20
2022-08-07T23:47:26.264Z,15.20
2022-08-07T23:50:18.287Z,15.20
2022-08-07T23:53:00.971Z,15.10
2022-08-07T23:56:11.686Z,15.10
